Time;durP1;ratioP1;P1;durP2;ratioP2;P2;SDS_P1;SDS_P2;PMS_P1;PMS_P2;Temp;Humidity;BMP_temperature;BMP_pressure;BME280_temperature;BME280_humidity;BME280_pressure;Samples;Min_cycle;Max_cycle;Signal;HPM_P1;HPM_P2
2022/04/22 00:00:30;;;;;;;13.50;10.10;;;;;;;;;;5096492;28;20458;-70
2022/04/22 00:02:57;;;;;;;16.00;8.53;;;;;;;;;;5096458;28;20450;-70
2022/04/22 00:05:24;;;;;;;12.23;9.20;;;;;;;;;;5096265;28;20454;-71
2022/04/22 00:07:53;;;;;;;14.10;10.20;;;;;;;;;;5096215;28;20454;-71
2022/04/22 00:10:20;;;;;;;14.00;10.20;;;;;;;;;;5096412;28;20473;-70
2022/04/22 00:12:47;;;;;;;13.70;11.23;;;;;;;;;;5096389;28;20979;-70
2022/04/22 00:15:14;;;;;;;12.80;9.80;;;;;;;;;;5096169;28;21003;-70
2022/04/22 00:17:42;;;;;;;13.67;10.63;;;;;;;;;;5096199;28;20459;-71
2022/04/22 00:20:11;;;;;;;13.30;10.40;;;;;;;;;;5096044;28;20505;-70
2022/04/22 00:22:39;;;;;;;19.53;12.63;;;;;;;;;;5096246;28;20525;-70
2022/04/22 00:25:09;;;;;;;14.30;9.77;;;;;;;;;;5095742;28;20528;-70
2022/04/22 00:27:36;;;;;;;14.30;11.60;;;;;;;;;;5096614;28;20450;-70
2022/04/22 00:30:03;;;;;;;20.60;11.37;;;;;;;;;;5095743;28;21002;-72
2022/04/22 00:32:33;;;;;;;17.00;11.13;;;;;;;;;;5095943;28;20458;-71
2022/04/22 00:35:00;;;;;;;18.27;10.33;;;;;;;;;;5095350;28;20514;-70
2022/04/22 00:37:27;;;;;;;16.27;9.83;;;;;;;;;;5095962;28;20486;-70
2022/04/22 00:39:55;;;;;;;19.40;11.87;;;;;;;;;;5096018;28;20474;-71
2022/04/22 00:42:24;;;;;;;15.67;11.23;;;;;;;;;;5095893;28;20455;-70
2022/04/22 00:44:51;;;;;;;15.50;11.00;;;;;;;;;;5095647;28;20898;-71
2022/04/22 00:47:18;;;;;;;15.40;11.30;;;;;;;;;;5095569;28;20462;-70
2022/04/22 00:49:46;;;;;;;17.83;12.00;;;;;;;;;;5095521;28;20481;-70
2022/04/22 00:52:14;;;;;;;15.70;11.80;;;;;;;;;;5095421;28;20461;-70
2022/04/22 00:54:42;;;;;;;15.33;11.13;;;;;;;;;;5095499;28;20494;-70
2022/04/22 00:57:09;;;;;;;16.10;12.03;;;;;;;;;;5095559;28;20888;-70
2022/04/22 00:59:38;;;;;;;20.60;11.00;;;;;;;;;;5095427;28;20971;-70
2022/04/22 01:02:05;;;;;;;17.43;11.37;;;;;;;;;;5095365;28;20446;-70
2022/04/22 01:10:02;;;;;;;15.20;11.07;;;;;;;;;;5095111;28;20489;-70
2022/04/22 01:12:31;;;;;;;18.63;12.20;;;;;;;;;;5095342;28;20450;-70
2022/04/22 01:14:59;;;;;;;18.73;12.13;;;;;;;;;;5094763;28;20497;-70
2022/04/22 01:17:27;;;;;;;14.20;10.63;;;;;;;;;;5095468;28;20454;-70
2022/04/22 01:19:55;;;;;;;22.17;12.80;;;;;;;;;;5094995;28;20919;-71
2022/04/22 01:22:23;;;;;;;28.60;12.80;;;;;;;;;;5094368;28;20498;-71
2022/04/22 01:24:51;;;;;;;20.63;12.27;;;;;;;;;;5095057;28;21014;-70
2022/04/22 01:27:19;;;;;;;14.90;11.97;;;;;;;;;;5094970;28;20462;-70
2022/04/22 01:29:46;;;;;;;18.10;11.53;;;;;;;;;;5094907;28;20466;-71
2022/04/22 01:32:13;;;;;;;25.43;11.30;;;;;;;;;;5094672;28;20462;-71
2022/04/22 01:34:42;;;;;;;14.77;11.93;;;;;;;;;;5094481;28;20451;-71
2022/04/22 01:37:10;;;;;;;13.30;10.53;;;;;;;;;;5094769;28;20454;-71
2022/04/22 01:39:38;;;;;;;14.90;10.13;;;;;;;;;;5094703;28;20470;-71
2022/04/22 01:42:06;;;;;;;14.00;10.73;;;;;;;;;;5094606;28;20824;-71
2022/04/22 01:44:35;;;;;;;16.30;11.97;;;;;;;;;;5093936;28;20447;-71
2022/04/22 01:47:02;;;;;;;10.83;9.43;;;;;;;;;;5094469;28;20458;-70
2022/04/22 01:49:30;;;;;;;13.97;11.03;;;;;;;;;;5094318;28;20470;-71
2022/04/22 01:51:57;;;;;;;18.30;10.50;;;;;;;;;;5094429;28;20446;-70
2022/04/22 01:54:24;;;;;;;13.70;11.10;;;;;;;;;;5094190;28;20454;-70
2022/04/22 01:56:53;;;;;;;12.80;9.70;;;;;;;;;;5094202;28;20545;-72
2022/04/22 01:59:20;;;;;;;14.10;11.27;;;;;;;;;;5094202;28;20470;-70
2022/04/22 02:01:47;;;;;;;21.57;12.43;;;;;;;;;;5094207;28;20936;-71
2022/04/22 02:04:14;;;;;;;11.00;8.60;;;;;;;;;;5093954;28;20455;-71
2022/04/22 02:06:41;;;;;;;15.90;11.67;;;;;;;;;;5094467;28;20465;-70
2022/04/22 02:09:08;;;;;;;14.17;10.70;;;;;;;;;;5093760;28;20471;-71
2022/04/22 02:11:36;;;;;;;14.57;11.23;;;;;;;;;;5094191;28;20512;-71
2022/04/22 02:14:04;;;;;;;17.80;11.40;;;;;;;;;;5093678;28;20450;-71
2022/04/22 02:16:31;;;;;;;16.13;11.20;;;;;;;;;;5093924;28;20493;-71
2022/04/22 02:18:58;;;;;;;17.87;11.80;;;;;;;;;;5094157;28;20467;-71
2022/04/22 02:21:25;;;;;;;22.83;11.03;;;;;;;;;;5093571;28;20472;-74
2022/04/22 02:23:52;;;;;;;15.03;10.93;;;;;;;;;;5093516;28;20971;-72
2022/04/22 02:26:20;;;;;;;20.70;9.90;;;;;;;;;;5093797;28;20447;-71
2022/04/22 02:28:46;;;;;;;20.70;12.23;;;;;;;;;;5093703;28;20486;-71
2022/04/22 02:31:14;;;;;;;17.90;11.50;;;;;;;;;;5093673;28;20453;-71
2022/04/22 02:33:42;;;;;;;13.37;10.87;;;;;;;;;;5093572;28;20455;-71
2022/04/22 02:36:10;;;;;;;15.40;10.03;;;;;;;;;;5093584;28;20486;-71
2022/04/22 02:38:37;;;;;;;14.00;10.50;;;;;;;;;;5093540;28;20482;-71
2022/04/22 02:46:36;;;;;;;16.97;11.47;;;;;;;;;;5093630;28;20556;-71
2022/04/22 02:49:03;;;;;;;13.47;11.97;;;;;;;;;;5093396;28;20971;-71
2022/04/22 02:51:30;;;;;;;15.37;11.20;;;;;;;;;;5093551;28;20454;-71
2022/04/22 02:53:58;;;;;;;15.70;10.90;;;;;;;;;;5093314;28;20454;-71
2022/04/22 02:56:26;;;;;;;15.50;11.67;;;;;;;;;;5092784;28;21006;-71
2022/04/22 02:58:53;;;;;;;18.20;12.70;;;;;;;;;;5093077;28;20474;-71
2022/04/22 03:01:21;;;;;;;15.43;11.67;;;;;;;;;;5093211;28;20490;-71
2022/04/22 03:03:49;;;;;;;14.27;11.17;;;;;;;;;;5093478;28;20822;-71
2022/04/22 03:06:17;;;;;;;14.77;11.40;;;;;;;;;;5093163;28;20453;-71
2022/04/22 03:08:44;;;;;;;14.83;11.60;;;;;;;;;;5093182;28;20536;-71
2022/04/22 03:11:11;;;;;;;13.47;12.00;;;;;;;;;;5093189;28;20466;-71
2022/04/22 03:13:40;;;;;;;16.83;11.73;;;;;;;;;;5093235;28;20446;-71
2022/04/22 03:16:07;;;;;;;16.80;12.30;;;;;;;;;;5092901;28;20482;-71
2022/04/22 03:18:35;;;;;;;37.73;14.00;;;;;;;;;;5093088;28;20466;-71
2022/04/22 03:21:04;;;;;;;16.73;12.73;;;;;;;;;;5093084;28;20800;-72
2022/04/22 03:23:31;;;;;;;18.67;12.93;;;;;;;;;;5092613;28;20463;-71
2022/04/22 03:25:58;;;;;;;16.80;13.13;;;;;;;;;;5092915;28;20446;-71
2022/04/22 03:28:26;;;;;;;13.93;10.63;;;;;;;;;;5093138;28;20815;-71
2022/04/22 03:30:53;;;;;;;14.60;11.97;;;;;;;;;;5093001;28;20982;-71
2022/04/22 03:33:20;;;;;;;15.37;12.50;;;;;;;;;;5093042;28;20798;-70
2022/04/22 03:35:50;;;;;;;22.67;13.27;;;;;;;;;;5092675;28;20482;-71
2022/04/22 03:38:18;;;;;;;14.17;11.70;;;;;;;;;;5092714;28;20450;-71
2022/04/22 03:40:46;;;;;;;16.40;12.47;;;;;;;;;;5093045;28;20990;-71
2022/04/22 03:43:13;;;;;;;17.70;13.03;;;;;;;;;;5092950;28;20478;-70
2022/04/22 03:45:40;;;;;;;15.77;11.70;;;;;;;;;;5092684;28;20450;-71
2022/04/22 03:48:07;;;;;;;17.73;11.77;;;;;;;;;;5092428;28;20529;-71
2022/04/22 03:50:35;;;;;;;17.30;12.97;;;;;;;;;;5092813;28;20829;-71
2022/04/22 03:53:03;;;;;;;15.20;11.70;;;;;;;;;;5092728;28;20451;-71
2022/04/22 03:55:31;;;;;;;14.00;11.47;;;;;;;;;;5092433;28;20450;-70
2022/04/22 03:58:13;;;;;;;17.60;12.07;;;;;;;;;;5092665;28;20944;-71
2022/04/22 04:00:41;;;;;;;17.20;12.03;;;;;;;;;;5092896;28;20790;-71
2022/04/22 04:03:09;;;;;;;13.17;10.57;;;;;;;;;;5092825;28;20557;-71
2022/04/22 04:05:36;;;;;;;14.73;10.50;;;;;;;;;;5092453;28;20462;-71
2022/04/22 04:08:03;;;;;;;16.07;10.70;;;;;;;;;;5093084;28;20461;-72
2022/04/22 04:16:00;;;;;;;14.13;11.87;;;;;;;;;;5096487;28;20481;-70
2022/04/22 04:18:29;;;;;;;13.80;10.70;;;;;;;;;;5096277;28;21006;-71
2022/04/22 04:23:40;;;;;;;16.97;12.80;;;;;;;;;;5095363;28;20441;-71
2022/04/22 04:26:09;;;;;;;18.20;11.47;;;;;;;;;;5096014;28;20451;-70
2022/04/22 04:28:36;;;;;;;17.47;12.20;;;;;;;;;;5096024;28;20816;-70
2022/04/22 04:31:04;;;;;;;14.07;11.30;;;;;;;;;;5096001;28;20824;-71
2022/04/22 04:33:31;;;;;;;15.57;13.00;;;;;;;;;;5095836;28;20955;-71
2022/04/22 04:35:58;;;;;;;16.70;12.40;;;;;;;;;;5095730;28;20489;-71
2022/04/22 04:38:26;;;;;;;18.63;12.40;;;;;;;;;;5095716;28;20479;-71
2022/04/22 04:40:53;;;;;;;16.63;13.50;;;;;;;;;;5096008;28;20494;-71
2022/04/22 04:43:22;;;;;;;15.33;12.83;;;;;;;;;;5095767;28;20462;-71
2022/04/22 04:45:50;;;;;;;14.90;11.87;;;;;;;;;;5095479;28;20873;-71
2022/04/22 04:48:17;;;;;;;17.67;13.20;;;;;;;;;;5095641;28;20818;-71
2022/04/22 04:50:45;;;;;;;13.00;11.03;;;;;;;;;;5095483;28;20458;-71
2022/04/22 04:53:12;;;;;;;16.80;11.97;;;;;;;;;;5095580;28;20473;-71
2022/04/22 04:55:39;;;;;;;18.60;14.23;;;;;;;;;;5095410;28;20986;-71
2022/04/22 04:58:06;;;;;;;16.33;12.90;;;;;;;;;;5095462;28;20454;-71
2022/04/22 05:00:35;;;;;;;15.87;12.50;;;;;;;;;;5095469;28;20461;-71
2022/04/22 05:03:03;;;;;;;15.73;12.17;;;;;;;;;;5095194;28;20462;-71
2022/04/22 05:05:30;;;;;;;16.60;12.20;;;;;;;;;;5095432;28;20817;-71
2022/04/22 05:07:58;;;;;;;16.70;12.50;;;;;;;;;;5095206;28;20447;-71
2022/04/22 05:10:26;;;;;;;20.33;11.57;;;;;;;;;;5095362;28;20465;-71
2022/04/22 05:12:54;;;;;;;16.07;11.30;;;;;;;;;;5095362;28;20446;-71
2022/04/22 05:15:23;;;;;;;13.23;11.10;;;;;;;;;;5094969;28;20447;-70
2022/04/22 05:17:52;;;;;;;14.70;10.27;;;;;;;;;;5095153;28;20607;-71
2022/04/22 05:20:20;;;;;;;19.20;11.43;;;;;;;;;;5093832;28;20474;-71
2022/04/22 05:22:48;;;;;;;13.43;10.83;;;;;;;;;;5094839;28;20516;-71
2022/04/22 05:25:16;;;;;;;14.40;9.57;;;;;;;;;;5094620;28;20455;-71
2022/04/22 05:27:43;;;;;;;12.80;10.87;;;;;;;;;;5095004;28;20447;-71
2022/04/22 05:32:57;;;;;;;13.43;10.70;;;;;;;;;;5094803;28;20426;-72
2022/04/22 05:35:26;;;;;;;13.00;11.30;;;;;;;;;;5094621;28;20931;-71
2022/04/22 05:37:54;;;;;;;17.10;11.87;;;;;;;;;;5094742;28;20848;-70
2022/04/22 05:40:22;;;;;;;15.87;11.60;;;;;;;;;;5094719;28;20952;-71
2022/04/22 05:42:49;;;;;;;15.30;10.60;;;;;;;;;;5094553;28;20524;-72
2022/04/22 05:45:17;;;;;;;18.00;12.93;;;;;;;;;;5094646;28;20454;-71
2022/04/22 05:47:44;;;;;;;16.13;12.07;;;;;;;;;;5094711;28;20851;-71
2022/04/22 05:50:14;;;;;;;14.50;11.13;;;;;;;;;;5094320;28;20473;-71
2022/04/22 05:52:41;;;;;;;14.40;11.07;;;;;;;;;;5094286;28;20457;-70
2022/04/22 05:55:09;;;;;;;13.60;10.33;;;;;;;;;;5094380;28;20451;-71
2022/04/22 05:57:37;;;;;;;14.40;10.43;;;;;;;;;;5094082;28;20490;-72
2022/04/22 06:00:05;;;;;;;15.10;9.20;;;;;;;;;;5094576;28;20497;-71
2022/04/22 06:02:33;;;;;;;11.77;8.50;;;;;;;;;;5094148;28;20447;-71
2022/04/22 06:05:00;;;;;;;14.20;11.10;;;;;;;;;;5094016;28;20454;-71
2022/04/22 06:07:28;;;;;;;12.23;10.93;;;;;;;;;;5094153;28;20439;-71
2022/04/22 06:12:40;;;;;;;17.43;10.47;;;;;;;;;;5094153;28;20426;-71
2022/04/22 06:15:08;;;;;;;11.90;9.80;;;;;;;;;;5093865;28;20455;-71
2022/04/22 06:17:35;;;;;;;14.80;9.33;;;;;;;;;;5093841;28;20494;-71
2022/04/22 06:20:02;;;;;;;12.80;10.27;;;;;;;;;;5093818;28;20475;-71
2022/04/22 06:22:31;;;;;;;12.70;9.77;;;;;;;;;;5093499;28;20955;-72
2022/04/22 06:24:58;;;;;;;11.60;9.00;;;;;;;;;;5093539;28;20978;-71
2022/04/22 06:27:26;;;;;;;9.30;8.33;;;;;;;;;;5093874;28;20446;-71
2022/04/22 06:29:54;;;;;;;13.30;9.07;;;;;;;;;;5094084;28;20478;-72
2022/04/22 06:32:22;;;;;;;12.03;9.70;;;;;;;;;;5093513;28;20549;-71
2022/04/22 06:34:50;;;;;;;9.30;7.90;;;;;;;;;;5093531;28;20451;-71
2022/04/22 06:37:17;;;;;;;10.30;8.40;;;;;;;;;;5093672;28;20495;-71
2022/04/22 06:48:01;;;;;;;15.20;9.97;;;;;;;;;;5093692;28;20472;-71
2022/04/22 06:50:28;;;;;;;10.67;8.07;;;;;;;;;;5093669;28;20489;-71
2022/04/22 06:52:55;;;;;;;10.47;8.97;;;;;;;;;;5093846;28;20825;-71
2022/04/22 06:55:25;;;;;;;9.60;8.07;;;;;;;;;;5093831;28;20447;-71
2022/04/22 06:57:53;;;;;;;11.47;9.33;;;;;;;;;;5093464;28;21010;-72
2022/04/22 07:00:21;;;;;;;12.63;10.30;;;;;;;;;;5093412;28;20566;-71
2022/04/22 07:02:48;;;;;;;13.80;9.70;;;;;;;;;;5093336;28;20452;-71
2022/04/22 07:05:16;;;;;;;13.00;9.53;;;;;;;;;;5093133;28;20442;-71
2022/04/22 07:07:43;;;;;;;10.90;8.27;;;;;;;;;;5093257;28;20465;-71
2022/04/22 07:10:10;;;;;;;11.47;8.97;;;;;;;;;;5093038;28;20506;-72
2022/04/22 07:12:39;;;;;;;13.10;9.57;;;;;;;;;;5093310;28;20819;-72
2022/04/22 07:15:07;;;;;;;12.40;10.10;;;;;;;;;;5093073;28;20450;-72
2022/04/22 07:17:34;;;;;;;10.30;8.73;;;;;;;;;;5093443;28;21071;-71
2022/04/22 07:20:03;;;;;;;11.50;9.37;;;;;;;;;;5093029;28;20471;-72
2022/04/22 07:22:30;;;;;;;10.63;8.63;;;;;;;;;;5092706;28;20497;-72
2022/04/22 07:24:57;;;;;;;13.50;10.40;;;;;;;;;;5092992;28;20446;-72
2022/04/22 07:27:27;;;;;;;8.87;7.97;;;;;;;;;;5093131;28;20447;-72
2022/04/22 07:29:57;;;;;;;13.13;9.70;;;;;;;;;;5093033;28;20541;-72
2022/04/22 07:32:24;;;;;;;9.23;8.20;;;;;;;;;;5093222;28;20538;-71
2022/04/22 07:34:51;;;;;;;14.23;8.67;;;;;;;;;;5093043;28;20446;-71
2022/04/22 07:37:19;;;;;;;11.37;9.73;;;;;;;;;;5092988;28;20994;-72
2022/04/22 07:39:46;;;;;;;14.60;10.10;;;;;;;;;;5092816;28;20477;-71
2022/04/22 07:42:15;;;;;;;14.23;10.60;;;;;;;;;;5092909;28;20455;-72
2022/04/22 07:47:33;;;;;;;10.50;7.50;;;;;;;;;;5097250;28;20911;-71
2022/04/22 07:50:02;;;;;;;11.40;8.20;;;;;;;;;;5096695;28;20474;-72
2022/04/22 07:52:29;;;;;;;17.07;10.50;;;;;;;;;;5097024;28;20603;-72
2022/04/22 07:54:56;;;;;;;10.67;8.70;;;;;;;;;;5096751;28;20453;-73
2022/04/22 07:57:23;;;;;;;9.97;8.80;;;;;;;;;;5096545;28;20856;-71
2022/04/22 07:59:50;;;;;;;13.27;9.73;;;;;;;;;;5096798;28;20885;-72
2022/04/22 08:02:18;;;;;;;9.87;8.83;;;;;;;;;;5096458;28;20452;-71
2022/04/22 08:04:46;;;;;;;11.17;9.07;;;;;;;;;;5096562;28;20454;-72
2022/04/22 08:07:15;;;;;;;11.37;8.50;;;;;;;;;;5096597;28;20847;-72
2022/04/22 08:09:44;;;;;;;11.17;9.00;;;;;;;;;;5096447;28;20528;-71
2022/04/22 08:12:12;;;;;;;11.77;8.73;;;;;;;;;;5096293;28;20466;-71
2022/04/22 08:14:39;;;;;;;9.40;7.43;;;;;;;;;;5096239;28;20792;-71
2022/04/22 08:17:06;;;;;;;10.50;9.20;;;;;;;;;;5096127;28;20482;-72
2022/04/22 08:19:33;;;;;;;13.20;9.27;;;;;;;;;;5096444;28;20471;-72
2022/04/22 08:22:02;;;;;;;10.83;8.83;;;;;;;;;;5096326;28;20457;-71
2022/04/22 08:24:29;;;;;;;11.67;9.20;;;;;;;;;;5096019;28;20458;-71
2022/04/22 08:26:57;;;;;;;9.63;7.67;;;;;;;;;;5096283;28;20453;-72
2022/04/22 08:29:24;;;;;;;10.47;7.90;;;;;;;;;;5096567;28;20998;-72
2022/04/22 08:31:52;;;;;;;12.70;8.97;;;;;;;;;;5096054;28;20939;-72
2022/04/22 08:34:19;;;;;;;8.20;7.20;;;;;;;;;;5095987;28;20451;-71
2022/04/22 08:36:47;;;;;;;9.83;8.57;;;;;;;;;;5096043;28;20451;-71
2022/04/22 08:39:16;;;;;;;9.33;8.43;;;;;;;;;;5095952;28;20889;-71
2022/04/22 08:41:43;;;;;;;12.10;9.67;;;;;;;;;;5095871;28;20450;-71
2022/04/22 08:44:13;;;;;;;10.03;8.67;;;;;;;;;;5095918;28;20916;-72
2022/04/22 08:52:10;;;;;;;9.83;8.10;;;;;;;;;;5095494;28;20422;-73
2022/04/22 08:54:40;;;;;;;11.70;9.00;;;;;;;;;;5095498;28;20940;-73
2022/04/22 08:57:07;;;;;;;11.13;9.60;;;;;;;;;;5095466;28;21011;-72
2022/04/22 08:59:34;;;;;;;12.37;9.10;;;;;;;;;;5095737;28;20988;-72
2022/04/22 09:02:02;;;;;;;11.87;8.80;;;;;;;;;;5095348;28;20511;-72
2022/04/22 09:04:29;;;;;;;10.43;9.20;;;;;;;;;;5095535;28;20864;-71
2022/04/22 09:06:57;;;;;;;10.73;9.63;;;;;;;;;;5095254;28;20851;-72
2022/04/22 09:09:25;;;;;;;10.00;8.90;;;;;;;;;;5095203;28;20478;-72
2022/04/22 09:11:54;;;;;;;12.07;9.50;;;;;;;;;;5095470;28;20451;-72
2022/04/22 09:14:24;;;;;;;18.10;9.67;;;;;;;;;;5094942;28;20457;-72
2022/04/22 09:16:51;;;;;;;11.90;9.90;;;;;;;;;;5095334;28;20438;-72
2022/04/22 09:19:18;;;;;;;10.80;9.67;;;;;;;;;;5095106;28;20482;-72
2022/04/22 09:21:57;;;;;;;12.33;8.70;;;;;;;;;;5094454;28;20450;-72
2022/04/22 09:24:24;;;;;;;10.33;8.37;;;;;;;;;;5094953;28;20491;-72
2022/04/22 09:27:05;;;;;;;9.87;8.37;;;;;;;;;;5095065;28;20948;-72
2022/04/22 09:29:41;;;;;;;10.50;7.93;;;;;;;;;;5094869;28;20510;-71
2022/04/22 09:32:10;;;;;;;8.93;8.03;;;;;;;;;;5094710;28;20454;-72
2022/04/22 09:34:39;;;;;;;9.20;8.30;;;;;;;;;;5094800;28;20454;-71
2022/04/22 09:42:51;;;;;;;11.00;8.83;;;;;;;;;;5094777;28;20553;-72
2022/04/22 09:45:18;;;;;;;11.60;9.03;;;;;;;;;;5094655;28;20466;-72
2022/04/22 09:47:45;;;;;;;9.73;8.27;;;;;;;;;;5094675;28;20935;-72
2022/04/22 09:50:14;;;;;;;16.53;9.53;;;;;;;;;;5094308;28;20479;-72
2022/04/22 09:52:46;;;;;;;9.83;8.40;;;;;;;;;;5094478;28;20461;-72
2022/04/22 09:55:15;;;;;;;8.50;7.70;;;;;;;;;;5094212;28;20449;-72
2022/04/22 09:57:53;;;;;;;8.60;7.80;;;;;;;;;;5094183;28;20522;-71
2022/04/22 10:00:20;;;;;;;11.33;8.03;;;;;;;;;;5094123;28;20835;-72
2022/04/22 10:02:50;;;;;;;10.23;7.93;;;;;;;;;;5094230;28;20507;-72
2022/04/22 10:05:18;;;;;;;9.33;8.43;;;;;;;;;;5094091;28;20523;-72
2022/04/22 10:07:45;;;;;;;26.63;13.47;;;;;;;;;;5093729;28;20451;-72
2022/04/22 10:10:14;;;;;;;7.97;6.43;;;;;;;;;;5094368;28;20485;-72
2022/04/22 10:12:41;;;;;;;10.60;8.97;;;;;;;;;;5094193;28;20877;-72
2022/04/22 10:15:09;;;;;;;9.33;8.40;;;;;;;;;;5093878;28;20461;-72
2022/04/22 10:17:38;;;;;;;15.70;10.50;;;;;;;;;;5094069;28;20479;-72
2022/04/22 10:20:06;;;;;;;10.73;9.57;;;;;;;;;;5093729;28;20475;-72
2022/04/22 10:22:34;;;;;;;9.87;8.03;;;;;;;;;;5093689;28;20454;-72
2022/04/22 10:25:03;;;;;;;26.67;15.70;;;;;;;;;;5093950;28;20435;-72
2022/04/22 10:27:32;;;;;;;9.83;8.30;;;;;;;;;;5094113;28;20478;-72
2022/04/22 10:30:00;;;;;;;9.50;8.33;;;;;;;;;;5093604;28;20474;-72
2022/04/22 10:32:31;;;;;;;9.60;8.53;;;;;;;;;;5093830;28;20971;-72
2022/04/22 10:34:59;;;;;;;10.10;8.00;;;;;;;;;;5093666;28;20453;-73
2022/04/22 10:37:27;;;;;;;9.60;7.67;;;;;;;;;;5093558;28;21020;-72
2022/04/22 10:39:56;;;;;;;10.93;9.03;;;;;;;;;;5093655;28;20470;-72
2022/04/22 10:42:30;;;;;;;10.00;8.57;;;;;;;;;;5093892;28;21005;-71
2022/04/22 10:47:48;;;;;;;8.43;7.53;;;;;;;;;;5093730;28;20426;-72
2022/04/22 10:50:25;;;;;;;7.30;6.60;;;;;;;;;;5093684;28;20481;-71
2022/04/22 10:53:02;;;;;;;9.87;7.87;;;;;;;;;;5093341;28;20449;-73
2022/04/22 10:55:30;;;;;;;9.80;8.60;;;;;;;;;;5093295;28;20455;-72
2022/04/22 10:58:16;;;;;;;11.00;8.97;;;;;;;;;;5093262;28;20868;-72
2022/04/22 11:00:43;;;;;;;11.43;9.47;;;;;;;;;;5093610;28;21013;-72
2022/04/22 11:03:18;;;;;;;8.40;7.53;;;;;;;;;;5093239;28;20455;-72
2022/04/22 11:05:47;;;;;;;9.70;8.80;;;;;;;;;;5093408;28;20449;-72
2022/04/22 11:08:25;;;;;;;11.93;8.60;;;;;;;;;;5093157;28;20451;-72
2022/04/22 11:11:03;;;;;;;17.63;10.17;;;;;;;;;;5093377;28;20450;-72
2022/04/22 11:13:31;;;;;;;12.30;10.20;;;;;;;;;;5093211;28;20442;-73
2022/04/22 11:15:59;;;;;;;13.40;10.60;;;;;;;;;;5093037;28;20494;-73
2022/04/22 11:18:27;;;;;;;11.53;8.97;;;;;;;;;;5094398;28;20501;-72
2022/04/22 11:21:00;;;;;;;9.13;8.23;;;;;;;;;;5097563;28;20458;-73
2022/04/22 11:23:34;;;;;;;14.93;12.60;;;;;;;;;;5097246;28;21017;-72
2022/04/22 11:26:02;;;;;;;12.37;8.00;;;;;;;;;;5097568;28;20449;-71
2022/04/22 11:28:32;;;;;;;11.07;8.67;;;;;;;;;;5097102;28;20462;-72
2022/04/22 11:31:00;;;;;;;10.47;9.13;;;;;;;;;;5097269;28;20884;-72
2022/04/22 11:33:35;;;;;;;10.67;9.30;;;;;;;;;;5097166;28;20446;-76
2022/04/22 11:36:06;;;;;;;11.20;9.37;;;;;;;;;;5097074;28;20434;-72
2022/04/22 11:38:33;;;;;;;10.73;8.53;;;;;;;;;;5096945;28;20995;-72
2022/04/22 11:41:00;;;;;;;27.67;10.23;;;;;;;;;;5096988;28;20439;-72
2022/04/22 11:43:29;;;;;;;11.10;7.70;;;;;;;;;;5096897;28;20450;-75
2022/04/22 11:45:56;;;;;;;14.77;9.30;;;;;;;;;;5096884;28;20450;-72
2022/04/22 11:48:24;;;;;;;11.40;9.10;;;;;;;;;;5096857;28;20466;-72
2022/04/22 11:50:53;;;;;;;10.27;8.97;;;;;;;;;;5097270;28;20842;-72
2022/04/22 11:53:22;;;;;;;14.73;10.60;;;;;;;;;;5097092;28;20547;-72
2022/04/22 11:55:50;;;;;;;12.10;9.60;;;;;;;;;;5096692;28;21019;-72
2022/04/22 11:58:20;;;;;;;11.97;8.90;;;;;;;;;;5096860;28;20482;-72
2022/04/22 12:06:19;;;;;;;9.23;8.20;;;;;;;;;;5096862;28;20418;-73
2022/04/22 12:08:52;;;;;;;9.20;7.50;;;;;;;;;;5096473;28;20471;-72
2022/04/22 12:11:20;;;;;;;10.83;8.80;;;;;;;;;;5096385;28;20955;-72
2022/04/22 12:13:47;;;;;;;8.93;7.57;;;;;;;;;;5096549;28;20463;-73
2022/04/22 12:16:19;;;;;;;8.53;7.30;;;;;;;;;;5096530;28;20834;-72
2022/04/22 12:18:48;;;;;;;8.47;7.53;;;;;;;;;;5096377;28;20485;-72
2022/04/22 12:21:15;;;;;;;9.00;8.10;;;;;;;;;;5096366;28;20487;-72
2022/04/22 12:23:45;;;;;;;15.70;9.80;;;;;;;;;;5095604;28;20470;-72
2022/04/22 12:26:15;;;;;;;9.93;8.30;;;;;;;;;;5096156;28;20466;-72
2022/04/22 12:28:59;;;;;;;9.90;8.40;;;;;;;;;;5095593;28;20470;-72
2022/04/22 12:31:26;;;;;;;8.77;7.87;;;;;;;;;;5096281;28;20939;-72
2022/04/22 12:33:57;;;;;;;8.33;7.30;;;;;;;;;;5095814;28;20446;-73
2022/04/22 12:36:24;;;;;;;14.20;8.10;;;;;;;;;;5096175;28;20859;-72
2022/04/22 12:38:53;;;;;;;12.27;7.67;;;;;;;;;;5095835;28;20490;-72
2022/04/22 12:41:22;;;;;;;20.30;11.87;;;;;;;;;;5096046;28;20457;-74
2022/04/22 12:43:50;;;;;;;8.40;7.53;;;;;;;;;;5095815;28;20454;-73
2022/04/22 12:52:14;;;;;;;9.13;8.17;;;;;;;;;;5095551;28;20799;-72
2022/04/22 12:54:45;;;;;;;11.20;8.33;;;;;;;;;;5095650;28;20952;-72
2022/04/22 12:57:13;;;;;;;12.67;8.80;;;;;;;;;;5095707;28;20516;-72
2022/04/22 12:59:43;;;;;;;12.13;7.50;;;;;;;;;;5095681;28;20522;-72
2022/04/22 13:02:11;;;;;;;8.97;7.63;;;;;;;;;;5095512;28;20462;-73
2022/04/22 13:04:55;;;;;;;22.17;12.30;;;;;;;;;;5095566;28;20454;-73
2022/04/22 13:07:24;;;;;;;11.20;6.93;;;;;;;;;;5095561;28;20454;-72
2022/04/22 13:09:53;;;;;;;17.23;11.60;;;;;;;;;;5095340;28;20842;-72
2022/04/22 13:12:20;;;;;;;8.73;7.60;;;;;;;;;;5095283;28;20447;-73
2022/04/22 13:14:48;;;;;;;9.97;6.67;;;;;;;;;;5095065;28;20454;-74
2022/04/22 13:17:22;;;;;;;14.37;10.73;;;;;;;;;;5095126;28;20482;-72
2022/04/22 13:19:49;;;;;;;11.03;5.60;;;;;;;;;;5095133;28;20995;-72
2022/04/22 13:22:16;;;;;;;9.73;8.10;;;;;;;;;;5095259;28;20458;-72
2022/04/22 13:24:45;;;;;;;19.23;17.03;;;;;;;;;;5094948;28;20462;-72
2022/04/22 13:27:16;;;;;;;8.17;7.30;;;;;;;;;;5095289;28;20451;-73
2022/04/22 13:29:43;;;;;;;7.40;6.70;;;;;;;;;;5095279;28;20463;-73
2022/04/22 13:32:11;;;;;;;12.30;7.30;;;;;;;;;;5095091;28;20454;-72
2022/04/22 13:34:38;;;;;;;9.40;7.23;;;;;;;;;;5094663;28;20462;-72
2022/04/22 13:37:06;;;;;;;13.27;8.03;;;;;;;;;;5094800;28;20450;-72
2022/04/22 13:39:33;;;;;;;8.50;7.10;;;;;;;;;;5094917;28;20843;-72
2022/04/22 13:42:00;;;;;;;9.00;7.37;;;;;;;;;;5093705;28;20843;-74
2022/04/22 13:52:42;;;;;;;11.13;7.13;;;;;;;;;;5094597;28;20426;-73
2022/04/22 13:55:10;;;;;;;13.40;6.30;;;;;;;;;;5094299;28;20454;-73
2022/04/22 13:57:37;;;;;;;9.00;7.53;;;;;;;;;;5094464;28;20454;-72
2022/04/22 14:00:06;;;;;;;10.30;5.90;;;;;;;;;;5094500;28;20490;-72
2022/04/22 14:02:33;;;;;;;9.03;6.53;;;;;;;;;;5094395;28;20453;-72
2022/04/22 14:05:00;;;;;;;8.20;6.27;;;;;;;;;;5093907;28;20465;-73
2022/04/22 14:07:28;;;;;;;9.80;6.63;;;;;;;;;;5094316;28;20465;-72
2022/04/22 14:09:55;;;;;;;8.17;6.70;;;;;;;;;;5094253;28;20467;-72
2022/04/22 14:12:22;;;;;;;6.67;5.97;;;;;;;;;;5094433;28;20454;-72
2022/04/22 14:14:52;;;;;;;8.47;7.00;;;;;;;;;;5094087;28;20970;-72
2022/04/22 14:17:20;;;;;;;7.90;6.27;;;;;;;;;;5094263;28;20455;-72
2022/04/22 14:19:47;;;;;;;9.70;7.20;;;;;;;;;;5093916;28;20487;-72
2022/04/22 14:22:15;;;;;;;8.97;7.87;;;;;;;;;;5093874;28;20470;-72
2022/04/22 14:24:43;;;;;;;10.93;9.83;;;;;;;;;;5094055;28;20458;-72
2022/04/22 14:27:11;;;;;;;12.10;10.13;;;;;;;;;;5093740;28;20640;-72
2022/04/22 14:29:39;;;;;;;11.73;8.27;;;;;;;;;;5092481;28;20482;-72
2022/04/22 14:32:07;;;;;;;7.90;6.63;;;;;;;;;;5093922;28;20470;-73
2022/04/22 14:34:36;;;;;;;19.00;9.27;;;;;;;;;;5093475;28;20477;-72
2022/04/22 14:37:03;;;;;;;9.60;7.70;;;;;;;;;;5093789;28;20446;-72
2022/04/22 14:39:30;;;;;;;20.43;8.00;;;;;;;;;;5093657;28;21010;-72
2022/04/22 14:41:57;;;;;;;9.63;8.63;;;;;;;;;;5093862;28;20453;-73
2022/04/22 14:44:24;;;;;;;9.37;7.80;;;;;;;;;;5093458;28;20520;-72
2022/04/22 14:46:52;;;;;;;10.20;7.27;;;;;;;;;;5093540;28;20454;-72
2022/04/22 14:49:19;;;;;;;6.73;5.57;;;;;;;;;;5093564;28;20569;-72
2022/04/22 14:51:50;;;;;;;9.17;7.90;;;;;;;;;;5093443;28;20890;-72
2022/04/22 14:54:17;;;;;;;12.73;7.50;;;;;;;;;;5093361;28;20466;-72
2022/04/22 14:56:44;;;;;;;9.93;8.13;;;;;;;;;;5093319;28;20459;-71
2022/04/22 14:59:11;;;;;;;12.07;8.80;;;;;;;;;;5093056;28;20497;-72
2022/04/22 15:01:38;;;;;;;13.60;8.53;;;;;;;;;;5093384;28;20452;-72
2022/04/22 15:04:06;;;;;;;13.33;10.30;;;;;;;;;;5093270;28;20817;-72
2022/04/22 15:06:33;;;;;;;11.07;8.67;;;;;;;;;;5093301;28;20465;-72
2022/04/22 15:09:02;;;;;;;10.93;8.00;;;;;;;;;;5093579;28;20471;-72
2022/04/22 15:11:29;;;;;;;10.63;8.00;;;;;;;;;;5093207;28;20460;-72
2022/04/22 15:13:59;;;;;;;11.40;9.07;;;;;;;;;;5092931;28;20939;-73
2022/04/22 15:16:27;;;;;;;9.73;8.73;;;;;;;;;;5093493;28;20454;-72
2022/04/22 15:24:25;;;;;;;9.40;7.67;;;;;;;;;;5092889;28;20496;-72
2022/04/22 15:26:54;;;;;;;14.47;9.43;;;;;;;;;;5093363;28;20447;-72
2022/04/22 15:29:21;;;;;;;9.40;8.40;;;;;;;;;;5093257;28;20466;-72
2022/04/22 15:31:48;;;;;;;9.57;8.60;;;;;;;;;;5093140;28;20451;-72
2022/04/22 15:34:16;;;;;;;9.67;7.63;;;;;;;;;;5092758;28;20511;-76
2022/04/22 15:36:43;;;;;;;8.03;6.33;;;;;;;;;;5093063;28;20546;-72
2022/04/22 15:39:10;;;;;;;13.27;9.97;;;;;;;;;;5092895;28;20482;-72
2022/04/22 15:41:39;;;;;;;10.93;8.30;;;;;;;;;;5093158;28;21007;-72
2022/04/22 15:44:06;;;;;;;14.93;10.50;;;;;;;;;;5092907;28;20477;-72
2022/04/22 15:46:33;;;;;;;11.10;9.07;;;;;;;;;;5093126;28;20467;-72